Time;durP1;ratioP1;P1;durP2;ratioP2;P2;SDS_P1;SDS_P2;PMS_P1;PMS_P2;Temp;Humidity;BMP_temperature;BMP_pressure;BME280_temperature;BME280_humidity;BME280_pressure;Samples;Min_cycle;Max_cycle;Signal;HPM_P1;HPM_P2
2023/04/16 00:02:15;;;;;;;11.55;4.45;;;;;;;7.23;100.00;102129.38;5010793;28;20026;-72
2023/04/16 00:04:40;;;;;;;9.85;3.83;;;;;;;7.24;100.00;102141.47;5010739;28;20405;-72
2023/04/16 00:07:06;;;;;;;11.15;4.20;;;;;;;7.31;100.00;102144.16;5004242;28;20607;-71
2023/04/16 00:09:32;;;;;;;12.35;4.60;;;;;;;7.23;100.00;102134.56;4992840;28;20449;-72
2023/04/16 00:11:57;;;;;;;10.68;4.95;;;;;;;7.30;100.00;102145.00;5005485;28;20057;-72
2023/04/16 00:14:23;;;;;;;9.40;4.32;;;;;;;7.21;100.00;102138.84;4995296;28;20069;-72
2023/04/16 00:16:48;;;;;;;7.70;4.20;;;;;;;7.29;100.00;102149.31;4997328;28;20050;-72
2023/04/16 00:19:13;;;;;;;8.02;4.38;;;;;;;7.33;100.00;102150.22;4997424;28;20078;-72
2023/04/16 00:21:39;;;;;;;9.05;4.40;;;;;;;7.32;100.00;102148.47;4999611;28;20030;-72
2023/04/16 00:24:04;;;;;;;10.07;4.72;;;;;;;7.35;100.00;102151.97;4997623;28;20484;-72
2023/04/16 00:26:30;;;;;;;9.25;4.80;;;;;;;7.34;100.00;102142.44;4996249;28;20030;-72
2023/04/16 00:28:55;;;;;;;9.57;4.30;;;;;;;7.35;100.00;102140.72;4988895;28;20026;-72
2023/04/16 00:31:31;;;;;;;9.75;4.57;;;;;;;7.35;100.00;102144.19;4989147;28;20128;-72
2023/04/16 00:33:56;;;;;;;11.38;5.13;;;;;;;7.32;100.00;102143.28;4987964;28;20030;-72
2023/04/16 00:36:26;;;;;;;12.68;4.75;;;;;;;7.37;100.00;102141.63;4989536;28;20488;-72
2023/04/16 00:38:52;;;;;;;10.68;5.45;;;;;;;7.33;100.00;102151.09;4980514;28;20477;-72
2023/04/16 00:41:18;;;;;;;11.25;4.72;;;;;;;7.32;100.00;102144.16;5003231;28;20026;-72
2023/04/16 00:43:43;;;;;;;10.48;5.65;;;;;;;7.30;100.00;102145.88;4990417;28;20025;-72
2023/04/16 00:46:08;;;;;;;9.02;5.18;;;;;;;7.32;100.00;102138.97;4991012;28;20105;-72
2023/04/16 00:48:36;;;;;;;11.82;4.93;;;;;;;7.34;100.00;102141.59;4990126;28;20041;-72
2023/04/16 00:51:04;;;;;;;11.32;5.43;;;;;;;7.37;100.00;102141.63;4990701;28;20030;-72
2023/04/16 00:53:30;;;;;;;11.15;5.68;;;;;;;7.37;100.00;102146.81;4990350;28;20042;-71
2023/04/16 00:55:56;;;;;;;11.40;5.00;;;;;;;7.37;100.00;102139.88;4988574;28;20023;-72
2023/04/16 00:58:22;;;;;;;13.73;5.30;;;;;;;7.39;100.00;102142.47;4987566;28;20060;-72
2023/04/16 01:00:47;;;;;;;10.18;5.22;;;;;;;7.42;100.00;102145.13;4990358;28;20058;-72
2023/04/16 01:03:12;;;;;;;10.60;4.90;;;;;;;7.37;100.00;102131.25;4990187;28;20037;-72
2023/04/16 01:05:38;;;;;;;12.77;5.22;;;;;;;7.40;100.00;102145.13;4990379;28;20025;-72
2023/04/16 01:08:04;;;;;;;14.77;5.85;;;;;;;7.40;100.00;102137.31;4990454;28;20373;-72
2023/04/16 01:10:29;;;;;;;12.70;5.53;;;;;;;7.41;100.00;102141.66;4989745;28;20014;-72
2023/04/16 01:12:55;;;;;;;15.07;5.40;;;;;;;7.41;100.00;102139.06;4990154;28;20028;-72
2023/04/16 01:15:20;;;;;;;14.30;5.90;;;;;;;7.36;100.00;102139.88;4991157;28;20520;-72
2023/04/16 01:17:45;;;;;;;10.90;5.38;;;;;;;7.37;100.00;102133.84;4988409;28;20030;-72
2023/04/16 01:20:11;;;;;;;12.70;6.28;;;;;;;7.37;100.00;102131.25;4990594;28;20047;-72
2023/04/16 01:22:36;;;;;;;11.60;6.13;;;;;;;7.36;100.00;102129.50;4990285;28;20113;-73
2023/04/16 01:25:01;;;;;;;10.07;6.07;;;;;;;7.35;100.00;102123.44;4989493;28;20026;-72
2023/04/16 01:27:27;;;;;;;15.35;6.20;;;;;;;7.41;100.00;102135.59;4990268;28;20022;-72
2023/04/16 01:29:52;;;;;;;11.13;5.82;;;;;;;7.38;100.00;102135.56;4990166;28;20466;-72
2023/04/16 01:32:17;;;;;;;12.07;6.28;;;;;;;7.42;100.00;102133.03;4990288;28;20030;-72
2023/04/16 01:34:43;;;;;;;16.80;6.13;;;;;;;7.38;100.00;102132.97;4989698;28;20428;-72
2023/04/16 01:37:08;;;;;;;12.95;6.25;;;;;;;7.46;100.00;102137.41;4989524;28;20030;-72
2023/04/16 01:39:33;;;;;;;13.23;7.00;;;;;;;7.44;100.00;102138.22;4989927;28;20014;-72
2023/04/16 01:41:59;;;;;;;14.52;6.22;;;;;;;7.46;100.00;102139.13;4990091;28;20058;-72
2023/04/16 01:44:25;;;;;;;12.95;7.85;;;;;;;7.45;100.00;102147.75;4989522;28;20395;-72
2023/04/16 01:46:50;;;;;;;17.27;7.35;;;;;;;7.41;100.00;102138.19;4989734;28;20026;-72
2023/04/16 01:49:15;;;;;;;13.95;6.97;;;;;;;7.43;100.00;102142.56;4990666;28;20033;-72
2023/04/16 01:51:41;;;;;;;13.40;7.32;;;;;;;7.50;100.00;102151.28;4988856;28;20026;-72
2023/04/16 01:54:06;;;;;;;13.55;7.32;;;;;;;7.52;100.00;102152.16;4989652;28;20114;-72
2023/04/16 01:56:32;;;;;;;11.88;7.07;;;;;;;7.50;100.00;102148.69;4989703;28;20019;-72
2023/04/16 01:58:57;;;;;;;10.60;6.93;;;;;;;7.53;100.00;102153.91;4987213;28;20033;-72
2023/04/16 02:01:22;;;;;;;12.50;7.30;;;;;;;7.47;100.00;102140.84;4989194;28;20034;-72
2023/04/16 02:03:49;;;;;;;13.63;8.20;;;;;;;7.45;100.00;102138.22;4987185;28;20474;-72
2023/04/16 02:06:15;;;;;;;15.07;8.43;;;;;;;7.48;100.00;102145.19;4988864;28;20021;-72
2023/04/16 02:08:40;;;;;;;15.55;8.00;;;;;;;7.39;100.00;102130.41;4989339;28;20027;-72
2023/04/16 02:11:06;;;;;;;11.90;7.85;;;;;;;7.46;100.00;102139.13;4989905;28;20489;-72
2023/04/16 02:13:31;;;;;;;16.70;8.70;;;;;;;7.45;100.00;102134.78;4990094;28;20050;-72
2023/04/16 02:15:57;;;;;;;13.88;8.13;;;;;;;7.51;100.00;102146.06;4989640;28;20579;-72
2023/04/16 02:18:22;;;;;;;15.43;8.65;;;;;;;7.51;100.00;102147.81;4989686;28;20079;-72
2023/04/16 02:20:48;;;;;;;12.27;8.25;;;;;;;7.47;100.00;102140.84;4988851;28;20080;-72
2023/04/16 02:23:14;;;;;;;13.85;8.93;;;;;;;7.50;100.00;102130.50;4990314;28;20035;-72
2023/04/16 02:25:45;;;;;;;19.17;9.45;;;;;;;7.51;100.00;102151.28;4989315;28;20029;-72
2023/04/16 02:28:15;;;;;;;13.70;8.45;;;;;;;7.47;100.00;102133.06;4989131;28;20058;-72
2023/04/16 02:30:41;;;;;;;13.90;8.65;;;;;;;7.47;100.00;102135.66;4992551;28;20065;-71
2023/04/16 02:33:07;;;;;;;16.30;8.95;;;;;;;7.49;100.00;102144.34;4992950;28;20472;-72
2023/04/16 02:35:33;;;;;;;12.70;8.73;;;;;;;7.48;100.00;102140.00;4992293;28;20034;-72
2023/04/16 02:37:59;;;;;;;12.90;8.57;;;;;;;7.49;100.00;102142.63;4992542;28;20025;-73
2023/04/16 02:40:25;;;;;;;14.23;8.63;;;;;;;7.48;100.00;102140.00;4992390;28;20113;-72
2023/04/16 02:42:50;;;;;;;10.90;8.45;;;;;;;7.46;100.00;102137.41;4992546;28;20034;-72
2023/04/16 02:45:16;;;;;;;13.07;8.45;;;;;;;7.44;100.00;102133.91;4992824;28;20465;-72
2023/04/16 02:47:41;;;;;;;14.93;8.70;;;;;;;7.54;100.00;102139.19;4991661;28;20030;-72
2023/04/16 02:50:07;;;;;;;12.63;8.60;;;;;;;7.53;100.00;102146.09;4992693;28;20022;-72
2023/04/16 02:52:32;;;;;;;16.35;8.48;;;;;;;7.55;100.00;102144.38;4992243;28;20474;-72
2023/04/16 02:54:58;;;;;;;15.52;8.52;;;;;;;7.56;100.00;102151.34;4991102;28;20046;-72
2023/04/16 02:57:23;;;;;;;14.65;8.95;;;;;;;7.61;100.00;102152.22;4993247;28;20414;-72
2023/04/16 02:59:49;;;;;;;13.32;8.30;;;;;;;7.51;100.00;102145.22;4992164;28;20354;-72
2023/04/16 03:02:15;;;;;;;13.40;8.05;;;;;;;7.57;100.00;102157.38;4991907;28;20105;-72
2023/04/16 03:04:40;;;;;;;13.30;9.80;;;;;;;7.58;100.00;102156.53;4992117;28;20031;-72
2023/04/16 03:07:05;;;;;;;14.07;8.70;;;;;;;7.59;100.00;102153.97;4992247;28;20086;-72
2023/04/16 03:09:31;;;;;;;15.93;9.27;;;;;;;7.55;100.00;102148.72;4990028;28;20474;-72
2023/04/16 03:11:56;;;;;;;14.60;9.15;;;;;;;7.57;100.00;102157.38;4991479;28;20495;-72
2023/04/16 03:14:21;;;;;;;16.88;9.18;;;;;;;7.53;100.00;102151.31;4990423;28;20474;-72
2023/04/16 03:16:47;;;;;;;14.27;9.70;;;;;;;7.55;100.00;102162.53;4990724;28;20034;-72
2023/04/16 03:19:12;;;;;;;16.52;10.13;;;;;;;7.53;100.00;102163.41;4989743;28;20079;-72
2023/04/16 03:21:37;;;;;;;17.77;10.30;;;;;;;7.51;100.00;102160.78;4991659;28;20030;-72
2023/04/16 03:24:03;;;;;;;14.88;10.05;;;;;;;7.49;100.00;102162.50;4991387;28;20529;-72
2023/04/16 03:26:28;;;;;;;16.10;11.23;;;;;;;7.51;100.00;102163.38;4992198;28;20085;-72
2023/04/16 03:28:53;;;;;;;18.65;10.98;;;;;;;7.57;100.00;102166.03;4991798;28;20428;-72
2023/04/16 03:31:18;;;;;;;19.70;11.70;;;;;;;7.54;100.00;102166.00;4991920;28;20026;-72
2023/04/16 03:33:44;;;;;;;16.55;10.80;;;;;;;7.52;100.00;102162.53;4991778;28;20434;-72
2023/04/16 03:36:10;;;;;;;17.40;10.90;;;;;;;7.55;100.00;102172.94;4992052;28;20027;-72
2023/04/16 03:38:35;;;;;;;21.13;11.48;;;;;;;7.47;100.00;102166.81;4991125;28;20030;-72
2023/04/16 03:41:00;;;;;;;19.00;11.40;;;;;;;7.54;100.00;102172.94;4990604;28;20057;-72
2023/04/16 03:43:25;;;;;;;18.70;11.30;;;;;;;7.56;100.00;102172.09;4990841;28;20034;-72
2023/04/16 03:45:51;;;;;;;21.85;12.10;;;;;;;7.55;100.00;102174.66;4990626;28;20109;-72
2023/04/16 03:48:16;;;;;;;17.60;12.45;;;;;;;7.49;100.00;102159.91;4990417;28;20180;-72
2023/04/16 03:50:46;;;;;;;21.73;12.48;;;;;;;7.49;100.00;102171.16;4990223;28;20034;-72
2023/04/16 03:53:11;;;;;;;19.42;12.45;;;;;;;7.49;100.00;102173.75;4989395;28;20474;-72
2023/04/16 03:55:37;;;;;;;19.00;13.07;;;;;;;7.46;100.00;102170.25;4989190;28;20022;-72
2023/04/16 03:58:03;;;;;;;23.33;13.85;;;;;;;7.39;100.00;102160.66;4989975;28;20022;-72
2023/04/16 04:00:29;;;;;;;25.55;14.27;;;;;;;7.43;100.00;102167.63;4990796;28;20030;-72
2023/04/16 04:02:55;;;;;;;24.73;14.45;;;;;;;7.40;100.00;102176.25;4990014;28;20053;-72
2023/04/16 04:05:20;;;;;;;23.83;13.85;;;;;;;7.43;100.00;102175.41;4988699;28;20027;-72
2023/04/16 04:07:45;;;;;;;24.33;14.98;;;;;;;7.37;100.00;102157.19;4990404;28;20163;-73
2023/04/16 04:10:10;;;;;;;21.02;14.30;;;;;;;7.44;100.00;102174.56;4989338;28;20374;-72
2023/04/16 04:12:36;;;;;;;22.40;13.50;;;;;;;7.44;100.00;102171.97;4989311;28;20030;-72
2023/04/16 04:15:01;;;;;;;19.73;13.52;;;;;;;7.44;100.00;102171.97;4990124;28;20052;-73
2023/04/16 04:17:26;;;;;;;24.33;14.48;;;;;;;7.42;100.00;102171.06;4990409;28;20030;-72
2023/04/16 04:19:52;;;;;;;23.25;13.80;;;;;;;7.43;100.00;102170.22;4990239;28;20064;-72
2023/04/16 04:22:18;;;;;;;19.30;12.88;;;;;;;7.41;100.00;102172.78;4988113;28;20026;-72
2023/04/16 04:24:43;;;;;;;21.00;14.07;;;;;;;7.38;100.00;102177.06;4988673;28;20038;-72
2023/04/16 04:27:08;;;;;;;19.02;12.82;;;;;;;7.36;100.00;102171.03;4989195;28;20097;-72
2023/04/16 04:29:34;;;;;;;21.60;13.20;;;;;;;7.32;100.00;102164.03;4990793;28;20036;-72
2023/04/16 04:31:59;;;;;;;21.45;13.23;;;;;;;7.31;100.00;102164.91;4989087;28;20373;-72
2023/04/16 04:34:25;;;;;;;20.30;13.05;;;;;;;7.36;100.00;102177.06;4988573;28;20022;-72
2023/04/16 04:36:50;;;;;;;21.20;13.23;;;;;;;7.33;100.00;102177.03;4990111;28;20117;-72
2023/04/16 04:39:15;;;;;;;19.17;13.05;;;;;;;7.39;100.00;102184.00;4987651;28;20030;-73
2023/04/16 04:41:41;;;;;;;22.67;14.25;;;;;;;7.39;100.00;102182.31;4988795;28;20030;-72
2023/04/16 04:44:06;;;;;;;22.83;12.95;;;;;;;7.40;100.00;102185.75;4990111;28;20036;-73
2023/04/16 04:46:31;;;;;;;24.95;13.52;;;;;;;7.40;100.00;102189.22;4989568;28;20026;-72
2023/04/16 04:48:56;;;;;;;21.60;13.32;;;;;;;7.33;100.00;102186.56;4987861;28;20076;-72
2023/04/16 04:51:22;;;;;;;23.00;14.30;;;;;;;7.39;100.00;102194.38;4990637;28;20026;-72
2023/04/16 04:53:47;;;;;;;22.58;13.00;;;;;;;7.37;100.00;102193.50;4990027;28;20446;-72
2023/04/16 04:56:12;;;;;;;20.67;14.07;;;;;;;7.36;100.00;102190.06;5003457;28;20481;-72
2023/04/16 04:58:38;;;;;;;24.40;13.77;;;;;;;7.39;100.00;102199.56;4986245;28;20037;-72
2023/04/16 05:01:03;;;;;;;21.95;13.65;;;;;;;7.37;100.00;102183.13;4990064;28;20101;-72
2023/04/16 05:03:28;;;;;;;23.30;13.80;;;;;;;7.39;100.00;102197.88;4990575;28;20019;-72
2023/04/16 05:05:53;;;;;;;22.77;13.20;;;;;;;7.43;100.00;102194.44;4990465;28;20030;-72
2023/04/16 05:08:19;;;;;;;25.23;13.43;;;;;;;7.45;100.00;102192.72;4989728;28;20030;-72
2023/04/16 05:10:44;;;;;;;23.05;13.50;;;;;;;7.39;100.00;102191.78;4990145;28;20033;-73
2023/04/16 05:13:10;;;;;;;26.27;14.45;;;;;;;7.40;100.00;102193.53;5004502;28;20029;-73
2023/04/16 05:15:35;;;;;;;23.10;13.60;;;;;;;7.43;100.00;102196.19;4989666;28;20363;-72
2023/04/16 05:18:00;;;;;;;21.08;13.98;;;;;;;7.43;100.00;102198.78;4990222;28;20030;-73
2023/04/16 05:20:25;;;;;;;26.23;14.05;;;;;;;7.44;100.00;102198.78;4990172;28;20037;-72
2023/04/16 05:22:51;;;;;;;24.92;13.43;;;;;;;7.42;100.00;102204.78;4989348;28;20087;-72
2023/04/16 05:25:17;;;;;;;24.85;14.18;;;;;;;7.45;100.00;102200.50;4991540;28;20034;-72
2023/04/16 05:27:42;;;;;;;24.15;15.05;;;;;;;7.44;100.00;102205.69;4990016;28;20027;-72
2023/04/16 05:30:08;;;;;;;23.77;14.10;;;;;;;7.38;100.00;102192.66;5003441;28;20058;-72
2023/04/16 05:32:33;;;;;;;23.27;13.77;;;;;;;7.44;100.00;102203.09;4990168;28;20087;-72
2023/04/16 05:34:59;;;;;;;26.23;13.50;;;;;;;7.45;100.00;102197.03;4990103;28;20019;-72
2023/04/16 05:37:24;;;;;;;21.83;13.05;;;;;;;7.42;100.00;102192.72;4989348;28;20529;-72
2023/04/16 05:39:50;;;;;;;22.95;13.43;;;;;;;7.49;100.00;102201.44;4989928;28;20018;-72
2023/04/16 05:42:15;;;;;;;24.98;14.02;;;;;;;7.56;100.00;102210.16;4990029;28;20030;-72
2023/04/16 05:44:40;;;;;;;23.23;13.60;;;;;;;7.57;100.00;102219.69;4989169;28;20088;-72
2023/04/16 05:47:08;;;;;;;24.00;13.43;;;;;;;7.53;100.00;102223.09;4990574;28;20424;-72
2023/04/16 05:49:33;;;;;;;21.00;12.93;;;;;;;7.55;100.00;102224.84;4989819;28;20022;-72
2023/04/16 05:51:59;;;;;;;24.98;13.30;;;;;;;7.57;100.00;102222.28;4988652;28;20030;-72
2023/04/16 05:54:24;;;;;;;25.33;13.25;;;;;;;7.55;100.00;102219.63;4989763;28;20074;-72
2023/04/16 05:56:49;;;;;;;25.42;13.68;;;;;;;7.57;100.00;102228.31;4989412;28;20065;-72
2023/04/16 05:59:15;;;;;;;21.27;13.32;;;;;;;7.57;100.00;102224.88;4986552;28;20067;-72
2023/04/16 06:01:41;;;;;;;25.88;13.45;;;;;;;7.63;100.00;102243.09;4987622;28;20037;-72
2023/04/16 06:04:06;;;;;;;26.70;13.65;;;;;;;7.61;100.00;102239.59;4988824;28;20030;-72
2023/04/16 06:06:31;;;;;;;24.02;13.02;;;;;;;7.55;100.00;102235.22;4990006;28;20044;-72
2023/04/16 06:08:57;;;;;;;24.00;12.80;;;;;;;7.56;100.00;102239.56;4992650;28;20034;-72
2023/04/16 06:11:22;;;;;;;21.88;13.27;;;;;;;7.56;100.00;102236.13;4992714;28;20110;-72
2023/04/16 06:13:47;;;;;;;25.25;13.32;;;;;;;7.55;100.00;102230.03;4992829;28;20135;-73
2023/04/16 06:16:13;;;;;;;20.35;12.27;;;;;;;7.58;100.00;102235.25;4993353;28;20470;-72
2023/04/16 06:18:38;;;;;;;24.42;12.80;;;;;;;7.62;100.00;102233.56;4992060;28;20014;-72
2023/04/16 06:21:03;;;;;;;26.90;13.63;;;;;;;7.64;100.00;102237.91;4993555;28;20533;-72
2023/04/16 06:23:29;;;;;;;27.92;13.75;;;;;;;7.59;100.00;102234.41;4991011;28;20065;-72
2023/04/16 06:25:54;;;;;;;22.98;12.73;;;;;;;7.60;100.00;102240.47;4989598;28;20022;-72
2023/04/16 06:28:20;;;;;;;24.75;13.90;;;;;;;7.60;100.00;102235.28;4991383;28;20493;-72
2023/04/16 06:30:46;;;;;;;24.23;13.20;;;;;;;7.63;100.00;102235.31;4992669;28;20072;-73
2023/04/16 06:33:11;;;;;;;26.27;14.25;;;;;;;7.60;100.00;102235.28;4992109;28;20466;-73
2023/04/16 06:35:36;;;;;;;23.27;13.95;;;;;;;7.72;100.00;102245.81;4992714;28;20117;-73
2023/04/16 06:38:01;;;;;;;24.50;13.98;;;;;;;7.74;100.00;102255.31;4992731;28;20056;-73
2023/04/16 06:40:27;;;;;;;26.17;12.85;;;;;;;7.79;100.00;102258.00;4992217;28;20110;-73
2023/04/16 06:42:52;;;;;;;25.67;13.90;;;;;;;7.81;100.00;102251.06;4992266;28;20363;-73
2023/04/16 06:45:18;;;;;;;27.80;12.82;;;;;;;7.87;100.00;102263.25;4992905;28;20079;-73
2023/04/16 06:47:43;;;;;;;26.60;13.13;;;;;;;7.88;100.00;102260.69;4993701;28;20026;-73
2023/04/16 06:50:09;;;;;;;21.85;13.13;;;;;;;7.96;100.00;102265.94;4989834;28;20496;-72
2023/04/16 06:52:34;;;;;;;23.77;12.98;;;;;;;7.96;100.00;102264.22;4992570;28;20026;-73
2023/04/16 06:55:00;;;;;;;24.70;13.02;;;;;;;7.95;100.00;102261.63;4991755;28;20100;-73
2023/04/16 06:57:25;;;;;;;22.33;12.63;;;;;;;7.89;100.00;102257.22;4992617;28;20045;-73
2023/04/16 06:59:51;;;;;;;23.83;13.05;;;;;;;8.01;100.00;102274.69;4992056;28;20022;-73
2023/04/16 07:02:16;;;;;;;22.67;12.85;;;;;;;8.03;100.00;102279.88;4990929;28;20035;-73
2023/04/16 07:04:41;;;;;;;23.30;13.55;;;;;;;8.01;100.00;102277.28;4991138;28;20034;-73
2023/04/16 07:07:07;;;;;;;21.75;12.52;;;;;;;7.99;100.00;102278.97;4992197;28;20034;-74
2023/04/16 07:09:32;;;;;;;19.40;12.43;;;;;;;8.06;100.00;102282.50;4991584;28;20070;-73
2023/04/16 07:11:58;;;;;;;22.55;13.05;;;;;;;8.07;100.00;102284.22;4998391;28;20022;-72
2023/04/16 07:14:23;;;;;;;25.73;13.55;;;;;;;8.06;100.00;102285.09;4992473;28;20080;-73
2023/04/16 07:16:48;;;;;;;23.92;12.10;;;;;;;8.05;100.00;102284.22;4989869;28;20488;-73
2023/04/16 07:19:14;;;;;;;26.55;13.15;;;;;;;8.09;100.00;102287.72;5026503;28;20430;-73
2023/04/16 07:21:40;;;;;;;23.30;13.63;;;;;;;8.07;100.00;102300.69;4988204;28;20076;-73
2023/04/16 07:24:06;;;;;;;27.55;13.60;;;;;;;8.03;100.00;102296.31;4991523;28;20033;-73
2023/04/16 07:26:31;;;;;;;22.33;13.02;;;;;;;8.11;100.00;102299.88;4992174;28;20030;-73
2023/04/16 07:28:56;;;;;;;24.90;14.43;;;;;;;8.13;100.00;102305.06;5009151;28;20145;-73
2023/04/16 07:31:22;;;;;;;30.23;14.63;;;;;;;8.13;100.00;102307.66;4991929;28;20494;-73
2023/04/16 07:33:47;;;;;;;26.98;14.80;;;;;;;8.09;100.00;102306.78;4991533;28;20033;-73
2023/04/16 07:36:12;;;;;;;26.58;13.88;;;;;;;8.11;100.00;102306.78;4989029;28;20038;-73
2023/04/16 07:38:38;;;;;;;27.83;14.85;;;;;;;8.10;100.00;102313.69;4990194;28;20022;-73
2023/04/16 07:41:03;;;;;;;29.83;14.18;;;;;;;8.16;100.00;102307.69;4989574;28;20049;-73
2023/04/16 07:43:28;;;;;;;27.17;14.15;;;;;;;8.21;100.00;102313.84;4988570;28;20038;-73
2023/04/16 07:45:54;;;;;;;27.98;14.68;;;;;;;8.23;100.00;102311.22;4991248;28;20070;-74
2023/04/16 07:48:19;;;;;;;25.52;14.75;;;;;;;8.31;100.00;102318.25;4991721;28;20033;-74
2023/04/16 07:50:44;;;;;;;32.40;14.13;;;;;;;8.33;100.00;102313.06;4991339;28;20045;-74
2023/04/16 07:53:10;;;;;;;23.02;14.68;;;;;;;8.35;100.00;102317.41;4989025;28;20070;-75
2023/04/16 07:55:35;;;;;;;26.20;14.50;;;;;;;8.35;100.00;102320.03;4991829;28;20045;-75
2023/04/16 07:58:01;;;;;;;26.85;14.57;;;;;;;8.37;100.00;102323.50;4997484;28;20033;-74
2023/04/16 08:00:27;;;;;;;27.30;14.73;;;;;;;8.40;100.00;102318.38;4991081;28;20072;-74
2023/04/16 08:02:52;;;;;;;28.27;15.02;;;;;;;8.43;100.00;102322.72;4991381;28;20034;-74
2023/04/16 08:05:19;;;;;;;37.45;15.88;;;;;;;8.44;100.00;102330.53;4987233;28;20122;-73
2023/04/16 08:07:44;;;;;;;28.23;15.20;;;;;;;8.44;100.00;102329.66;4991209;28;20029;-74
2023/04/16 08:10:10;;;;;;;33.25;16.30;;;;;;;8.27;100.00;102308.66;4990168;28;20053;-74
2023/04/16 08:12:35;;;;;;;29.05;15.40;;;;;;;8.44;100.00;102337.47;4990758;28;20056;-74
2023/04/16 08:15:00;;;;;;;29.90;16.58;;;;;;;8.46;100.00;102337.47;4990114;28;20058;-74
2023/04/16 08:17:27;;;;;;;26.40;15.10;;;;;;;8.46;100.00;102327.06;4992390;28;20041;-73
2023/04/16 08:19:52;;;;;;;31.48;16.42;;;;;;;8.50;100.00;102345.31;4988866;28;20050;-74
2023/04/16 08:22:18;;;;;;;33.40;15.60;;;;;;;8.54;100.00;102344.50;5034943;28;20053;-73
2023/04/16 08:24:43;;;;;;;28.58;15.75;;;;;;;8.59;100.00;102347.13;4999901;28;20097;-74
2023/04/16 08:27:10;;;;;;;29.80;16.05;;;;;;;8.64;100.00;102343.72;4989153;28;20023;-74
2023/04/16 08:29:35;;;;;;;32.97;15.68;;;;;;;8.64;100.00;102350.63;4990406;28;20088;-73
2023/04/16 08:32:02;;;;;;;34.22;16.02;;;;;;;8.71;100.00;102355.03;4990307;28;20030;-73
2023/04/16 08:34:28;;;;;;;31.92;15.85;;;;;;;8.71;100.00;102354.16;4991051;28;20469;-73
2023/04/16 08:36:53;;;;;;;27.50;15.85;;;;;;;8.66;100.00;102352.41;4990816;28;20039;-72
2023/04/16 08:39:21;;;;;;;34.88;16.02;;;;;;;8.69;100.00;102351.53;4990248;28;20061;-72
2023/04/16 08:41:47;;;;;;;29.25;15.48;;;;;;;8.68;100.00;102347.19;4990680;28;20026;-73
2023/04/16 08:44:31;;;;;;;33.90;15.75;;;;;;;8.76;100.00;102363.72;4991079;28;20109;-73
2023/04/16 08:46:57;;;;;;;32.17;16.33;;;;;;;8.75;100.00;102363.72;4978142;28;20053;-73
2023/04/16 08:49:26;;;;;;;30.40;15.68;;;;;;;8.74;100.00;102359.38;4990814;28;20030;-73
2023/04/16 08:51:53;;;;;;;29.08;15.85;;;;;;;8.81;100.00;102368.97;4990355;28;20474;-73
2023/04/16 08:54:45;;;;;;;32.20;16.25;;;;;;;8.83;100.00;102364.66;4989546;28;20560;-73
2023/04/16 08:57:15;;;;;;;30.98;16.25;;;;;;;8.80;100.00;102375.06;4979542;28;20056;-73
2023/04/16 08:59:45;;;;;;;29.63;15.82;;;;;;;8.80;100.00;102375.06;4990504;28;20072;-73
2023/04/16 09:02:12;;;;;;;36.67;16.27;;;;;;;8.84;100.00;102382.00;4990510;28;20020;-73
2023/04/16 09:04:38;;;;;;;31.92;16.70;;;;;;;8.86;100.00;102380.28;4990717;28;20026;-73
2023/04/16 09:07:06;;;;;;;34.42;17.25;;;;;;;8.84;100.00;102377.69;4990487;28;20049;-73
2023/04/16 09:09:32;;;;;;;28.95;16.02;;;;;;;8.80;100.00;102370.72;4989834;28;20034;-73
2023/04/16 09:11:58;;;;;;;35.17;17.42;;;;;;;8.88;100.00;102379.44;4990284;28;20484;-73
2023/04/16 09:14:23;;;;;;;33.70;16.05;;;;;;;8.94;100.00;102389.03;4989686;28;20026;-73
2023/04/16 09:16:52;;;;;;;32.63;16.05;;;;;;;8.96;100.00;102386.41;4990253;28;20033;-73
2023/04/16 09:19:17;;;;;;;31.20;16.02;;;;;;;8.95;100.00;102385.56;4990692;28;20015;-73
2023/04/16 09:21:45;;;;;;;33.67;15.93;;;;;;;8.93;100.00;102383.78;4989404;28;20033;-73
2023/04/16 09:24:11;;;;;;;31.88;16.30;;;;;;;9.00;100.00;102391.69;4990441;28;20030;-73
2023/04/16 09:26:37;;;;;;;34.00;15.85;;;;;;;9.08;100.00;102389.13;4990192;28;20427;-73
2023/04/16 09:29:02;;;;;;;33.30;16.67;;;;;;;9.06;100.00;102389.13;4989312;28;20030;-73
2023/04/16 09:31:28;;;;;;;31.88;17.00;;;;;;;9.05;100.00;102387.38;4990414;28;20032;-73
2023/04/16 09:34:02;;;;;;;32.55;16.58;;;;;;;9.11;100.00;102386.53;4990037;28;20457;-73
2023/04/16 09:36:28;;;;;;;29.55;15.25;;;;;;;9.17;100.00;102386.59;4976150;28;20031;-73
2023/04/16 09:38:53;;;;;;;30.17;15.77;;;;;;;9.17;100.00;102391.78;4991198;28;20359;-72
2023/04/16 09:41:24;;;;;;;28.48;15.60;;;;;;;9.18;100.00;102403.94;4993707;28;20022;-73
2023/04/16 09:43:57;;;;;;;32.28;16.45;;;;;;;9.25;100.00;102412.66;4992906;28;20022;-73
2023/04/16 09:46:28;;;;;;;27.42;15.38;;;;;;;9.26;100.00;102409.22;4993744;28;20109;-73
2023/04/16 09:48:53;;;;;;;31.60;16.25;;;;;;;9.21;100.00;102397.88;4993477;28;20104;-73
2023/04/16 09:51:18;;;;;;;30.90;15.70;;;;;;;9.25;100.00;102407.44;4992563;28;20474;-73
2023/04/16 09:53:44;;;;;;;29.92;15.23;;;;;;;9.19;100.00;102415.22;4992726;28;20042;-73
2023/04/16 09:56:11;;;;;;;28.90;15.93;;;;;;;9.21;100.00;102418.72;4993587;28;20065;-73
2023/04/16 09:58:37;;;;;;;28.98;15.77;;;;;;;9.17;100.00;102401.34;4992429;28;20434;-73
2023/04/16 10:01:10;;;;;;;34.67;15.63;;;;;;;9.15;100.00;102414.31;4993174;28;20041;-73
2023/04/16 10:03:36;;;;;;;;;;;;;;;9.26;100.00;102417.03;4993121;28;20030;-73
2023/04/16 10:06:13;;;;;;;31.65;15.45;;;;;;;9.20;100.00;102417.84;4993061;28;20324;-73
2023/04/16 10:08:46;;;;;;;32.33;15.70;;;;;;;9.16;100.00;102421.28;4992962;28;20026;-73
2023/04/16 10:11:11;;;;;;;36.08;16.63;;;;;;;9.20;100.00;102422.19;4992672;28;20030;-73
2023/04/16 10:13:37;;;;;;;27.90;15.50;;;;;;;9.18;100.00;102418.69;4993333;28;20358;-73
2023/04/16 10:16:02;;;;;;;32.97;17.02;;;;;;;9.26;100.00;102422.22;4992910;28;20521;-73
2023/04/16 10:18:28;;;;;;;31.90;16.13;;;;;;;9.18;100.00;102405.66;4992624;28;20030;-73
2023/04/16 10:20:54;;;;;;;30.40;16.17;;;;;;;9.30;100.00;102418.78;4992802;28;20049;-73
2023/04/16 10:23:21;;;;;;;32.60;16.60;;;;;;;9.31;100.00;102416.16;4993379;28;20034;-73
2023/04/16 10:25:52;;;;;;;31.65;16.42;;;;;;;9.29;100.00;102423.13;4992116;28;20026;-72
2023/04/16 10:28:17;;;;;;;32.67;16.42;;;;;;;9.27;100.00;102417.03;4992836;28;20545;-73
2023/04/16 10:30:54;;;;;;;34.72;16.90;;;;;;;9.32;100.00;102417.06;4992544;28;20053;-73
2023/04/16 10:33:21;;;;;;;34.50;17.65;;;;;;;9.34;100.00;102421.41;4992064;28;20458;-73
2023/04/16 10:35:49;;;;;;;30.60;16.88;;;;;;;9.26;100.00;102422.22;4992266;28;20110;-73
2023/04/16 10:38:24;;;;;;;29.75;16.48;;;;;;;9.27;100.00;102432.63;4993122;28;20026;-73
2023/04/16 10:40:56;;;;;;;31.15;16.60;;;;;;;9.25;100.00;102433.47;4985807;28;20026;-73
2023/04/16 10:43:24;;;;;;;28.35;16.67;;;;;;;9.15;100.00;102422.13;4980113;28;20023;-74
2023/04/16 10:45:49;;;;;;;33.72;16.73;;;;;;;9.18;100.00;102434.28;4991532;28;20031;-73
2023/04/16 10:48:17;;;;;;;28.38;16.25;;;;;;;9.19;100.00;102430.81;4992472;28;20427;-73
2023/04/16 10:50:53;;;;;;;31.25;17.25;;;;;;;9.14;100.00;102429.06;4992196;28;20026;-73
2023/04/16 10:53:22;;;;;;;32.33;16.65;;;;;;;9.15;100.00;102435.13;4990640;28;20045;-73
2023/04/16 10:56:05;;;;;;;28.08;16.35;;;;;;;9.18;100.00;102440.38;4983610;28;20031;-73
2023/04/16 10:58:33;;;;;;;32.67;17.05;;;;;;;9.21;100.00;102429.13;4992462;28;20034;-73
2023/04/16 11:01:00;;;;;;;32.80;17.25;;;;;;;9.20;100.00;102437.78;4988118;28;20031;-73
2023/04/16 11:03:30;;;;;;;32.22;17.60;;;;;;;9.19;100.00;102420.41;4992345;28;20438;-72
2023/04/16 11:06:11;;;;;;;27.77;17.13;;;;;;;9.27;100.00;102434.38;4994923;28;20030;-76
2023/04/16 11:08:40;;;;;;;31.83;17.52;;;;;;;9.30;100.00;102426.59;5006633;28;20034;-77